Time;durP1;ratioP1;P1;durP2;ratioP2;P2;SDS_P1;SDS_P2;PMS_P1;PMS_P2;Temp;Humidity;BMP_temperature;BMP_pressure;BME280_temperature;BME280_humidity;BME280_pressure;Samples;Min_cycle;Max_cycle;Signal;HPM_P1;HPM_P2
2024/02/13 00:00:49;;;;;;;20.40;7.47;;;;;;;9.76;100.00;99058.09;5021880;28;20030;-78
2024/02/13 00:03:15;;;;;;;13.65;5.80;;;;;;;9.40;100.00;99062.75;5014494;28;20493;-79
2024/02/13 00:05:40;;;;;;;16.35;6.57;;;;;;;9.15;100.00;99033.75;5022482;28;20036;-79
2024/02/13 00:08:06;;;;;;;18.08;6.57;;;;;;;9.41;100.00;99061.69;5023576;28;20043;-79
2024/02/13 00:10:31;;;;;;;19.92;7.65;;;;;;;9.32;100.00;99069.25;5010642;28;20100;-78
2024/02/13 00:12:59;;;;;;;18.40;7.60;;;;;;;8.74;100.00;99048.84;5010475;28;20034;-78
2024/02/13 00:15:25;;;;;;;19.73;7.13;;;;;;;8.99;100.00;99049.41;5029156;28;20107;-80
2024/02/13 00:17:51;;;;;;;16.02;6.55;;;;;;;9.13;100.00;99054.47;5027682;28;20041;-78
2024/02/13 00:20:17;;;;;;;19.58;5.75;;;;;;;9.45;100.00;99073.47;5029324;28;20037;-79
2024/02/13 00:22:47;;;;;;;21.08;8.60;;;;;;;9.49;100.00;99071.97;5029843;28;20083;-78
2024/02/13 00:25:13;;;;;;;24.85;11.75;;;;;;;9.20;100.00;99050.63;5029670;28;20049;-80
2024/02/13 00:27:39;;;;;;;19.27;7.47;;;;;;;9.31;100.00;99064.16;5027794;28;20033;-78
2024/02/13 00:30:06;;;;;;;27.73;11.68;;;;;;;9.62;100.00;99079.69;5029568;28;20117;-79
2024/02/13 00:32:38;;;;;;;61.70;24.23;;;;;;;9.29;100.00;99080.34;5061341;28;20120;-79
2024/02/13 00:35:08;;;;;;;26.63;10.02;;;;;;;9.16;100.00;99075.28;5029201;28;20034;-79
2024/02/13 00:37:37;;;;;;;18.95;6.22;;;;;;;8.99;100.00;99075.16;5029069;28;20121;-79
2024/02/13 00:40:05;;;;;;;21.40;7.32;;;;;;;9.08;100.00;99035.75;5029156;28;20037;-79
2024/02/13 00:42:37;;;;;;;18.25;6.72;;;;;;;9.02;100.00;99026.84;5027682;28;20017;-79
2024/02/13 00:45:07;;;;;;;13.48;5.55;;;;;;;9.19;100.00;99069.47;5043700;28;20044;-79
2024/02/13 00:47:33;;;;;;;16.27;6.63;;;;;;;9.05;100.00;99026.38;5044489;28;20028;-79
2024/02/13 00:49:59;;;;;;;19.08;6.15;;;;;;;9.31;100.00;99054.31;5009678;28;20025;-80
2024/02/13 00:52:28;;;;;;;27.40;13.60;;;;;;;9.09;100.00;99048.78;5027028;28;20040;-79
2024/02/13 00:54:58;;;;;;;18.50;7.15;;;;;;;8.74;100.00;99027.56;5028797;28;20091;-79
2024/02/13 00:57:24;;;;;;;16.17;5.85;;;;;;;9.04;100.00;99056.69;5028781;28;20022;-79
2024/02/13 00:59:49;;;;;;;14.57;5.65;;;;;;;8.66;100.00;99055.28;5028729;28;20118;-80
2024/02/13 01:02:18;;;;;;;16.50;5.95;;;;;;;8.55;100.00;99043.63;5012005;28;20077;-80
2024/02/13 01:04:47;;;;;;;;;;;;;;;9.01;100.00;99073.09;5019540;28;20030;-79
2024/02/13 01:07:12;;;;;;;15.73;5.63;;;;;;;8.85;100.00;99053.34;5026522;28;19921;-79
2024/02/13 01:09:38;;;;;;;16.63;6.03;;;;;;;8.69;100.00;99054.84;5028782;28;20048;-79
2024/02/13 01:12:06;;;;;;;19.30;6.28;;;;;;;8.85;100.00;99043.53;5016739;28;20029;-79
2024/02/13 01:14:31;;;;;;;;;;;;;;;9.31;100.00;99072.13;5016725;28;20054;-79
2024/02/13 01:16:57;;;;;;;14.70;5.28;;;;;;;9.16;100.00;99056.66;5028158;28;19928;-79
2024/02/13 01:19:22;;;;;;;20.90;5.88;;;;;;;9.02;100.00;99042.81;5028637;28;20029;-79
2024/02/13 01:21:48;;;;;;;17.63;6.60;;;;;;;8.99;100.00;99043.25;5028438;28;20037;-78
2024/02/13 01:24:14;;;;;;;16.63;5.72;;;;;;;8.96;100.00;99059.69;5026885;28;20398;-80
2024/02/13 01:26:39;;;;;;;15.80;5.50;;;;;;;8.92;100.00;99055.88;5028251;28;20088;-79
2024/02/13 01:29:05;;;;;;;12.40;5.78;;;;;;;8.74;100.00;99054.94;5028296;28;20414;-80
2024/02/13 01:31:32;;;;;;;19.42;6.47;;;;;;;8.89;100.00;99065.13;5028313;28;20025;-79
2024/02/13 01:33:59;;;;;;;15.93;6.40;;;;;;;8.83;100.00;99016.34;5027838;28;20030;-79
2024/02/13 01:36:25;;;;;;;19.20;7.03;;;;;;;9.03;100.00;99055.03;5026882;28;20514;-79
2024/02/13 01:38:51;;;;;;;22.08;7.80;;;;;;;8.97;100.00;99040.84;5030262;28;20029;-79
2024/02/13 01:41:16;;;;;;;69.20;23.85;;;;;;;8.77;100.00;99035.91;5028126;28;20033;-80
2024/02/13 01:43:42;;;;;;;85.63;32.63;;;;;;;8.88;100.00;99042.22;5028180;28;20279;-79
2024/02/13 01:46:08;;;;;;;109.55;39.58;;;;;;;8.79;100.00;99023.19;5026811;28;20040;-79
2024/02/13 01:48:36;;;;;;;127.18;44.65;;;;;;;8.90;100.00;99034.84;5028089;28;20034;-79
2024/02/13 01:51:04;;;;;;;163.90;59.65;;;;;;;9.10;100.00;99071.69;5027903;28;20022;-79
2024/02/13 01:53:31;;;;;;;224.60;83.22;;;;;;;9.14;100.00;99046.25;5028205;28;20091;-79
2024/02/13 01:55:57;;;;;;;197.07;72.60;;;;;;;9.10;100.00;99053.09;5027970;28;20044;-79
2024/02/13 01:58:23;;;;;;;174.98;65.93;;;;;;;8.94;100.00;99041.31;5028322;28;20052;-80
2024/02/13 02:00:58;;;;;;;195.57;70.05;;;;;;;8.98;100.00;99053.09;5027852;28;20056;-79
2024/02/13 02:03:25;;;;;;;67.75;27.23;;;;;;;8.84;100.00;99062.34;5027471;28;20105;-78
2024/02/13 02:05:51;;;;;;;64.50;27.13;;;;;;;8.93;100.00;99078.75;5027699;28;20094;-79
2024/02/13 02:08:18;;;;;;;79.88;32.72;;;;;;;8.63;100.00;99050.47;5025956;28;20113;-79
2024/02/13 02:10:44;;;;;;;95.43;39.70;;;;;;;8.71;100.00;99074.03;5027620;28;20398;-79
2024/02/13 02:13:11;;;;;;;85.22;32.65;;;;;;;8.74;100.00;99049.63;5027624;28;20037;-79
2024/02/13 02:15:41;;;;;;;88.50;32.53;;;;;;;8.71;100.00;99065.25;5037556;28;20051;-79
2024/02/13 02:18:07;;;;;;;64.95;28.00;;;;;;;8.25;100.00;99059.63;5042729;28;20044;-79
2024/02/13 02:20:32;;;;;;;23.70;10.60;;;;;;;8.21;100.00;99079.69;5026392;28;20030;-79
2024/02/13 02:22:58;;;;;;;24.10;11.88;;;;;;;8.00;100.00;99084.50;5026785;28;20032;-80
2024/02/13 02:25:23;;;;;;;21.50;9.82;;;;;;;7.93;100.00;99075.81;5026281;28;20395;-79
2024/02/13 02:27:49;;;;;;;17.88;8.77;;;;;;;8.08;100.00;99098.50;5027052;28;20553;-80
2024/02/13 02:30:15;;;;;;;25.00;10.45;;;;;;;8.00;100.00;99089.81;5027036;28;20494;-79
2024/02/13 02:32:41;;;;;;;26.20;11.85;;;;;;;8.58;100.00;99095.50;5027416;28;20100;-79
2024/02/13 02:35:07;;;;;;;28.13;10.20;;;;;;;8.17;100.00;99089.16;5026128;28;20037;-79
2024/02/13 02:37:34;;;;;;;17.80;7.72;;;;;;;7.83;100.00;99086.97;5027795;28;20029;-79
2024/02/13 02:40:01;;;;;;;18.08;6.85;;;;;;;7.83;100.00;99088.84;5027660;28;20036;-79
2024/02/13 02:42:26;;;;;;;20.75;7.95;;;;;;;7.89;100.00;99098.56;5027213;28;20084;-79
2024/02/13 02:44:53;;;;;;;23.23;7.93;;;;;;;7.53;100.00;99079.00;5025542;28;20029;-79
2024/02/13 02:47:19;;;;;;;17.40;8.35;;;;;;;8.04;100.00;99114.88;5027347;28;20036;-79
2024/02/13 02:49:45;;;;;;;15.15;6.35;;;;;;;8.24;100.00;99111.13;5027455;28;20493;-79
2024/02/13 02:52:10;;;;;;;21.65;9.30;;;;;;;8.35;100.00;99086.44;5027359;28;20044;-79
2024/02/13 02:54:36;;;;;;;19.02;7.22;;;;;;;8.56;100.00;99118.84;5026073;28;20072;-79
2024/02/13 02:57:04;;;;;;;41.38;14.15;;;;;;;8.55;100.00;99109.25;5027249;28;20038;-79
2024/02/13 02:59:30;;;;;;;51.25;18.50;;;;;;;8.70;100.00;99098.97;5026932;28;20028;-79
2024/02/13 03:01:55;;;;;;;56.13;19.67;;;;;;;8.76;100.00;99115.88;5026849;28;20026;-79
2024/02/13 03:04:20;;;;;;;67.18;23.05;;;;;;;8.81;100.00;99102.72;5027309;28;20032;-79
2024/02/13 03:06:46;;;;;;;63.80;25.38;;;;;;;9.06;100.00;99107.78;5026737;28;20132;-80
2024/02/13 03:09:12;;;;;;;36.03;13.98;;;;;;;8.74;100.00;99089.50;5027114;28;20471;-79
2024/02/13 03:11:37;;;;;;;35.45;14.88;;;;;;;8.61;100.00;99095.06;5027346;28;20040;-79
2024/02/13 03:14:04;;;;;;;18.98;9.27;;;;;;;8.39;100.00;99111.50;5027173;28;20021;-79
2024/02/13 03:16:30;;;;;;;16.92;7.57;;;;;;;8.24;100.00;99103.16;5027120;28;20091;-78
2024/02/13 03:18:56;;;;;;;18.42;7.00;;;;;;;8.60;100.00;99093.44;5027054;28;20021;-79
2024/02/13 03:21:22;;;;;;;17.48;7.25;;;;;;;8.47;100.00;99126.34;5047969;28;20036;-79
2024/02/13 03:23:47;;;;;;;12.38;6.25;;;;;;;8.32;100.00;99117.97;5050759;28;20028;-79
2024/02/13 03:26:13;;;;;;;20.75;7.82;;;;;;;8.72;100.00;99123.47;5043922;28;20033;-79
2024/02/13 03:28:38;;;;;;;14.35;6.32;;;;;;;8.79;100.00;99132.19;5030121;28;20036;-79
2024/02/13 03:31:04;;;;;;;16.02;7.57;;;;;;;8.58;100.00;99087.53;5030593;28;20540;-78
2024/02/13 03:33:30;;;;;;;13.82;7.60;;;;;;;8.57;100.00;99118.63;5030557;28;20037;-79
2024/02/13 03:35:56;;;;;;;16.02;7.97;;;;;;;8.50;100.00;99131.22;5030533;28;20052;-79
2024/02/13 03:38:21;;;;;;;13.57;8.38;;;;;;;8.69;100.00;99123.97;5030139;28;20542;-78
2024/02/13 03:40:47;;;;;;;18.20;8.15;;;;;;;8.48;100.00;99106.72;5032076;28;20044;-79
2024/02/13 03:43:12;;;;;;;16.27;8.10;;;;;;;8.30;100.00;99099.59;5029084;28;20025;-79
2024/02/13 03:45:38;;;;;;;19.05;10.00;;;;;;;8.39;100.00;99111.50;5030130;28;20606;-79
2024/02/13 03:48:04;;;;;;;60.75;24.98;;;;;;;8.67;100.00;99126.03;5030545;28;20095;-79
2024/02/13 03:50:29;;;;;;;52.85;22.05;;;;;;;8.40;100.00;99123.75;5029753;28;20415;-79
2024/02/13 03:52:56;;;;;;;61.25;25.13;;;;;;;8.26;100.00;99119.69;5030360;28;20113;-79
2024/02/13 03:55:21;;;;;;;32.78;15.48;;;;;;;8.50;100.00;99135.69;5030122;28;20064;-79
2024/02/13 03:57:46;;;;;;;17.88;10.90;;;;;;;8.19;100.00;99134.91;5029930;28;20053;-79
2024/02/13 04:00:13;;;;;;;14.18;8.18;;;;;;;8.30;100.00;99130.69;5029574;28;20029;-79
2024/02/13 04:02:39;;;;;;;17.30;8.07;;;;;;;8.39;100.00;99134.63;5028803;28;20052;-80
2024/02/13 04:05:05;;;;;;;17.05;8.27;;;;;;;8.24;100.00;99113.78;5030009;28;20041;-79
2024/02/13 04:07:31;;;;;;;16.85;8.60;;;;;;;8.25;100.00;99124.19;5029379;28;20036;-78
2024/02/13 04:09:56;;;;;;;16.05;8.45;;;;;;;8.23;100.00;99142.22;5032415;28;20028;-79
2024/02/13 04:12:22;;;;;;;16.80;8.10;;;;;;;8.15;100.00;99129.25;5049563;28;20032;-79
2024/02/13 04:14:47;;;;;;;14.10;6.78;;;;;;;7.98;100.00;99113.13;5049627;28;20048;-78
2024/02/13 04:17:13;;;;;;;13.15;7.53;;;;;;;8.28;100.00;99136.22;5039856;28;20039;-78
2024/02/13 04:19:41;;;;;;;19.52;8.18;;;;;;;7.75;100.00;99131.59;5030317;28;20033;-79
2024/02/13 04:22:06;;;;;;;21.85;9.10;;;;;;;7.56;100.00;99147.53;5030071;28;20022;-79
2024/02/13 04:24:32;;;;;;;26.73;12.23;;;;;;;7.44;100.00;99128.09;5029830;28;20040;-79
2024/02/13 04:26:57;;;;;;;24.70;11.52;;;;;;;7.49;100.00;99146.78;5028560;28;20025;-80
2024/02/13 04:29:22;;;;;;;24.98;10.38;;;;;;;7.50;100.00;99143.13;5028268;28;20116;-79
2024/02/13 04:31:48;;;;;;;18.83;9.30;;;;;;;7.26;100.00;99126.25;5045465;28;20130;-79
2024/02/13 04:34:13;;;;;;;21.15;8.27;;;;;;;7.30;100.00;99153.13;5028962;28;20438;-79
2024/02/13 04:36:39;;;;;;;13.63;8.05;;;;;;;7.18;100.00;99139.78;5028133;28;20025;-79
2024/02/13 04:39:06;;;;;;;14.35;7.22;;;;;;;7.24;100.00;99150.31;5029690;28;20037;-80
2024/02/13 04:41:32;;;;;;;10.40;6.50;;;;;;;7.30;100.00;99126.63;5031868;28;20029;-79
2024/02/13 04:43:57;;;;;;;11.90;6.93;;;;;;;7.21;100.00;99113.66;5029524;28;20033;-79
2024/02/13 04:46:24;;;;;;;12.15;6.78;;;;;;;7.55;100.00;99145.91;5029440;28;20025;-79
2024/02/13 04:48:51;;;;;;;16.70;8.05;;;;;;;7.55;100.00;99164.47;5029632;28;20525;-78
2024/02/13 04:51:17;;;;;;;15.68;8.20;;;;;;;7.57;100.00;99154.47;5029329;28;20420;-78
2024/02/13 04:53:43;;;;;;;13.98;7.35;;;;;;;7.23;100.00;99122.19;5029414;28;20489;-79
2024/02/13 04:56:09;;;;;;;13.88;8.35;;;;;;;7.37;100.00;99127.34;5029284;28;20028;-78
2024/02/13 04:58:36;;;;;;;13.32;7.57;;;;;;;7.49;100.00;99136.19;5029675;28;20037;-79
2024/02/13 05:01:04;;;;;;;11.70;8.10;;;;;;;7.57;100.00;99158.97;5031937;28;20494;-78
2024/02/13 05:03:42;;;;;;;17.77;7.93;;;;;;;7.74;100.00;99143.25;5028980;28;20032;-78
2024/02/13 05:08:55;;;;;;;14.70;8.45;;;;;;;8.08;100.00;99175.50;5029839;28;20052;-78
2024/02/13 05:11:26;;;;;;;13.57;8.50;;;;;;;8.10;100.00;99176.09;5032349;28;20060;-79
2024/02/13 05:13:52;;;;;;;17.02;8.25;;;;;;;8.01;100.00;99168.44;5028859;28;20024;-78
2024/02/13 05:16:18;;;;;;;15.32;8.07;;;;;;;7.82;100.00;99137.63;5032944;28;20045;-79
2024/02/13 05:18:46;;;;;;;16.38;8.13;;;;;;;7.98;100.00;99160.91;5040018;28;20057;-79
2024/02/13 05:21:19;;;;;;;17.75;8.82;;;;;;;8.24;100.00;99185.50;5040005;28;20037;-80
2024/02/13 05:23:47;;;;;;;21.23;9.85;;;;;;;8.21;100.00;99162.03;5040097;28;20028;-79
2024/02/13 05:26:13;;;;;;;21.92;10.80;;;;;;;8.11;100.00;99145.84;5040692;28;20087;-80
2024/02/13 05:28:38;;;;;;;197.80;129.95;;;;;;;8.39;100.00;99172.59;5039605;28;20025;-79
2024/02/13 05:31:07;;;;;;;31.70;19.58;;;;;;;8.07;100.00;99157.94;5039466;28;20113;-79
2024/02/13 05:33:33;;;;;;;26.88;15.30;;;;;;;8.13;100.00;99183.59;5039295;28;20029;-79
2024/02/13 05:36:00;;;;;;;52.88;38.25;;;;;;;8.19;100.00;99177.38;5038967;28;20045;-78
2024/02/13 05:38:26;;;;;;;26.67;16.75;;;;;;;7.91;100.00;99168.16;5036948;28;20030;-79
2024/02/13 05:40:51;;;;;;;35.28;17.60;;;;;;;7.76;100.00;99186.28;5035620;28;20033;-79
2024/02/13 05:43:16;;;;;;;29.80;16.63;;;;;;;7.64;100.00;99165.00;5037001;28;20384;-79
2024/02/13 05:45:42;;;;;;;40.58;25.85;;;;;;;7.64;100.00;99170.28;5035137;28;20032;-79
2024/02/13 05:48:09;;;;;;;33.33;18.92;;;;;;;7.73;100.00;99176.94;5037236;28;20030;-79
2024/02/13 05:50:34;;;;;;;26.30;14.88;;;;;;;7.69;100.00;99182.91;5035455;28;20029;-78
2024/02/13 05:53:00;;;;;;;23.05;12.35;;;;;;;7.78;100.00;99186.88;5033727;28;20041;-79
2024/02/13 05:55:25;;;;;;;25.70;17.23;;;;;;;7.33;100.00;99206.53;5034060;28;20029;-78
2024/02/13 05:57:51;;;;;;;23.95;11.77;;;;;;;7.50;100.00;99180.25;5017186;28;20064;-78
2024/02/13 06:00:16;;;;;;;24.63;11.40;;;;;;;7.83;100.00;99217.03;5030598;28;20025;-79
2024/02/13 06:02:42;;;;;;;16.98;9.40;;;;;;;7.98;100.00;99219.31;5032297;28;20472;-79
2024/02/13 06:05:09;;;;;;;18.80;10.70;;;;;;;8.02;100.00;99228.47;5029543;28;20029;-79
2024/02/13 06:07:35;;;;;;;23.42;17.63;;;;;;;8.14;100.00;99228.53;5029539;28;20094;-79
2024/02/13 06:10:01;;;;;;;23.40;15.77;;;;;;;9.04;100.00;99226.88;5036868;28;20124;-80
2024/02/13 06:12:26;;;;;;;33.08;27.48;;;;;;;9.71;100.00;99231.06;5036611;28;20037;-78
2024/02/13 06:14:52;;;;;;;34.10;25.25;;;;;;;9.91;100.00;99204.88;5034834;28;20212;-79
2024/02/13 06:17:18;;;;;;;16.45;12.68;;;;;;;9.96;100.00;99202.28;5036884;28;20017;-79
2024/02/13 06:19:44;;;;;;;22.15;13.93;;;;;;;10.03;100.00;99208.31;5031777;28;20036;-80
2024/02/13 06:22:10;;;;;;;19.55;12.02;;;;;;;10.08;100.00;99228.09;5037449;28;20668;-79
2024/02/13 06:24:36;;;;;;;22.65;13.75;;;;;;;10.09;100.00;99249.16;5036618;28;20101;-80
2024/02/13 06:27:02;;;;;;;21.67;12.82;;;;;;;9.94;100.00;99231.00;5034886;28;20036;-80
2024/02/13 06:29:27;;;;;;;25.05;19.98;;;;;;;10.02;100.00;99237.84;5038408;28;20029;-80
2024/02/13 06:31:54;;;;;;;19.45;13.43;;;;;;;10.23;100.00;99239.03;5036247;28;20100;-79
2024/02/13 06:34:21;;;;;;;23.37;16.70;;;;;;;10.39;100.00;99250.84;5036999;28;20031;-80
2024/02/13 06:36:47;;;;;;;22.63;15.70;;;;;;;10.26;100.00;99226.06;5035077;28;20307;-80
2024/02/13 06:39:13;;;;;;;27.77;21.42;;;;;;;10.61;100.00;99243.00;5034365;28;20032;-81
2024/02/13 06:41:41;;;;;;;27.75;16.92;;;;;;;10.60;100.00;99249.38;5035874;28;20033;-79
2024/02/13 06:44:07;;;;;;;25.48;16.98;;;;;;;10.41;100.00;99254.09;5036480;28;20030;-80
2024/02/13 06:46:33;;;;;;;23.55;16.40;;;;;;;9.74;100.00;99260.69;5034305;28;20033;-80
2024/02/13 06:48:59;;;;;;;28.67;21.00;;;;;;;9.17;100.00;99258.56;5037691;28;20032;-80
2024/02/13 06:51:25;;;;;;;43.45;28.30;;;;;;;10.06;100.00;99269.09;5034898;28;20033;-79
2024/02/13 06:53:50;;;;;;;37.80;26.42;;;;;;;10.40;100.00;99277.28;5035159;28;20060;-79
2024/02/13 06:56:17;;;;;;;37.42;23.15;;;;;;;10.24;100.00;99277.97;5037587;28;20108;-79
2024/02/13 06:58:43;;;;;;;26.33;17.58;;;;;;;10.16;100.00;99281.00;5037799;28;20017;-80
2024/02/13 07:01:09;;;;;;;28.67;18.00;;;;;;;10.08;100.00;99265.41;5030904;28;20052;-80
2024/02/13 07:03:35;;;;;;;26.17;16.17;;;;;;;10.29;100.00;99246.09;5030702;28;20441;-80
2024/02/13 07:06:00;;;;;;;25.52;15.10;;;;;;;11.28;100.00;99268.94;5031187;28;20479;-80
2024/02/13 07:08:25;;;;;;;19.20;10.85;;;;;;;11.18;100.00;99282.94;5030585;28;20021;-81
2024/02/13 07:10:52;;;;;;;19.08;13.02;;;;;;;10.97;100.00;99275.63;5030241;28;20025;-79
2024/02/13 07:13:17;;;;;;;23.98;19.10;;;;;;;11.25;100.00;99267.53;5041754;28;20103;-79
2024/02/13 07:15:43;;;;;;;13.82;8.98;;;;;;;11.57;100.00;99274.97;5050456;28;20045;-80
2024/02/13 07:18:09;;;;;;;17.50;11.27;;;;;;;11.76;100.00;99269.38;5049444;28;20027;-80
2024/02/13 07:20:34;;;;;;;9.35;5.50;;;;;;;11.81;100.00;99283.63;5030647;28;20099;-80
2024/02/13 07:23:01;;;;;;;16.67;7.40;;;;;;;12.50;100.00;99300.25;5033153;28;20380;-79
2024/02/13 07:25:30;;;;;;;30.67;22.98;;;;;;;12.53;100.00;99289.09;5035889;28;20052;-80
2024/02/13 07:27:57;;;;;;;16.33;8.30;;;;;;;12.77;100.00;99277.03;5038275;28;20111;-80
2024/02/13 07:30:23;;;;;;;14.13;6.85;;;;;;;13.29;100.00;99298.91;5040952;28;20463;-80
2024/02/13 07:32:49;;;;;;;15.68;8.40;;;;;;;12.59;100.00;99274.69;5041313;28;20116;-79
2024/02/13 07:35:15;;;;;;;11.00;6.88;;;;;;;12.34;100.00;99269.84;5041989;28;20128;-79
2024/02/13 07:37:40;;;;;;;12.68;6.57;;;;;;;12.15;100.00;99264.03;5037919;28;20033;-80
2024/02/13 07:40:07;;;;;;;13.40;6.32;;;;;;;12.69;100.00;99279.31;5033312;28;20419;-79
2024/02/13 07:42:33;;;;;;;13.20;6.45;;;;;;;12.91;100.00;99298.00;5030977;28;20404;-80
2024/02/13 07:44:58;;;;;;;10.55;6.47;;;;;;;12.69;100.00;99269.47;5029972;28;20554;-80
2024/02/13 07:47:28;;;;;;;11.13;5.72;;;;;;;12.85;100.00;99283.78;5030015;28;20121;-79
2024/02/13 07:49:54;;;;;;;9.93;6.93;;;;;;;12.89;100.00;99297.47;5030668;28;20131;-80
2024/02/13 07:52:20;;;;;;;8.98;4.97;;;;;;;12.68;100.00;99304.47;5030057;28;20030;-81
2024/02/13 07:54:46;;;;;;;8.02;3.85;;;;;;;12.57;100.00;99298.22;5009022;28;20034;-79
2024/02/13 07:57:16;;;;;;;6.45;3.38;;;;;;;12.37;100.00;99304.13;5010487;28;20408;-78
2024/02/13 07:59:42;;;;;;;5.28;3.35;;;;;;;12.24;100.00;99305.31;5016917;28;20026;-78
2024/02/13 08:02:12;;;;;;;6.25;3.40;;;;;;;12.01;100.00;99268.94;5028501;28;20087;-78
2024/02/13 08:04:38;;;;;;;5.50;3.20;;;;;;;12.32;100.00;99304.88;5026870;28;20353;-78
2024/02/13 08:07:03;;;;;;;8.10;4.90;;;;;;;12.54;100.00;99282.66;5029700;28;20816;-78
2024/02/13 08:09:29;;;;;;;6.63;3.90;;;;;;;12.46;100.00;99308.81;5029534;28;20108;-79
2024/02/13 08:11:54;;;;;;;6.00;3.22;;;;;;;12.14;100.00;99305.19;5030004;28;20129;-79
2024/02/13 08:14:20;;;;;;;6.28;3.40;;;;;;;12.21;100.00;99289.75;5031778;28;20068;-79
2024/02/13 08:16:45;;;;;;;6.63;4.13;;;;;;;12.77;100.00;99295.75;5030047;28;20025;-78
2024/02/13 08:19:11;;;;;;;5.43;3.45;;;;;;;12.78;100.00;99304.59;5029854;28;20041;-78
2024/02/13 08:21:37;;;;;;;5.10;3.05;;;;;;;12.37;100.00;99301.47;5030031;28;20056;-78
2024/02/13 08:24:06;;;;;;;6.80;3.40;;;;;;;12.17;100.00;99299.34;5026928;28;20045;-78
2024/02/13 08:26:31;;;;;;;;;;;;;;;12.18;100.00;99311.66;5025744;28;20052;-84
2024/02/13 08:28:57;;;;;;;7.80;4.22;;;;;;;12.14;100.00;99300.66;5019796;28;19960;-78
2024/02/13 08:31:23;;;;;;;9.02;4.13;;;;;;;12.02;100.00;99297.28;5025264;28;20045;-80
2024/02/13 08:33:48;;;;;;;6.35;3.00;;;;;;;12.10;100.00;99320.91;5021709;28;20026;-78
2024/02/13 08:36:13;;;;;;;7.57;4.50;;;;;;;11.86;100.00;99291.69;5024957;28;20048;-79
2024/02/13 08:38:41;;;;;;;6.15;3.50;;;;;;;11.88;100.00;99302.13;5028733;28;20033;-79
2024/02/13 08:41:07;;;;;;;9.82;5.93;;;;;;;11.99;100.00;99295.91;5027183;28;20064;-79
2024/02/13 08:43:33;;;;;;;7.85;4.32;;;;;;;12.13;100.00;99322.28;5026633;28;20064;-79
2024/02/13 08:46:00;;;;;;;6.43;3.80;;;;;;;11.90;100.00;99309.94;5026094;28;20080;-79
2024/02/13 08:48:26;;;;;;;6.00;3.08;;;;;;;12.04;100.00;99311.19;5019879;28;20025;-77
2024/02/13 08:50:53;;;;;;;6.07;3.65;;;;;;;12.06;100.00;99299.19;5027912;28;20501;-79
2024/02/13 08:53:19;;;;;;;6.93;3.67;;;;;;;12.17;100.00;99288.63;5030631;28;20025;-79
2024/02/13 08:55:44;;;;;;;5.95;3.17;;;;;;;12.09;100.00;99283.72;5028736;28;20036;-79
2024/02/13 08:58:10;;;;;;;5.88;3.70;;;;;;;12.64;100.00;99318.34;5028379;28;20041;-79
2024/02/13 09:00:35;;;;;;;4.75;3.00;;;;;;;12.93;97.88;99314.63;5028297;28;20083;-79
2024/02/13 09:03:01;;;;;;;7.55;4.13;;;;;;;12.64;96.79;99322.88;5025860;28;20034;-78
2024/02/13 09:05:27;;;;;;;5.97;3.42;;;;;;;12.94;95.83;99308.22;5026676;28;20025;-78
2024/02/13 09:07:52;;;;;;;6.18;3.10;;;;;;;12.98;91.91;99325.41;5029148;28;20037;-78
2024/02/13 09:10:21;;;;;;;4.03;2.47;;;;;;;13.47;90.80;99346.75;5028357;28;20079;-78
2024/02/13 09:12:46;;;;;;;4.03;2.80;;;;;;;13.45;88.54;99298.00;5028980;28;20043;-78
2024/02/13 09:15:12;;;;;;;4.90;2.70;;;;;;;13.54;89.79;99314.38;5026991;28;20136;-78
2024/02/13 09:17:42;;;;;;;6.47;3.38;;;;;;;13.78;89.21;99333.59;5028635;28;20514;-78
2024/02/13 09:20:13;;;;;;;4.95;2.97;;;;;;;14.20;86.47;99340.78;5028121;28;20112;-78
2024/02/13 09:22:42;;;;;;;3.92;2.58;;;;;;;14.04;84.65;99327.31;5026729;28;20022;-78
2024/02/13 09:25:08;;;;;;;4.35;2.58;;;;;;;13.73;88.35;99334.38;5021909;28;20038;-79
2024/02/13 09:27:35;;;;;;;7.80;4.30;;;;;;;14.08;86.55;99316.88;5015549;28;20061;-78
2024/02/13 09:30:01;;;;;;;4.43;2.90;;;;;;;14.40;86.41;99308.69;5008456;28;20033;-78
2024/02/13 09:32:26;;;;;;;7.20;3.75;;;;;;;14.54;82.90;99314.38;5028186;28;20029;-78
2024/02/13 09:34:51;;;;;;;2.75;1.83;;;;;;;14.58;80.23;99315.50;5028380;28;20379;-79
2024/02/13 09:37:17;;;;;;;4.10;2.53;;;;;;;13.97;82.45;99294.56;5027801;28;20116;-79
2024/02/13 09:39:42;;;;;;;5.07;2.58;;;;;;;14.53;82.42;99334.25;5028209;28;20047;-79
2024/02/13 09:42:07;;;;;;;3.72;2.00;;;;;;;14.75;78.29;99326.03;5027733;28;20083;-78
2024/02/13 09:44:33;;;;;;;3.65;1.52;;;;;;;14.83;77.14;99333.56;5028257;28;20029;-78
2024/02/13 09:46:59;;;;;;;6.65;2.63;;;;;;;14.66;81.63;99311.50;5027804;28;20021;-79
2024/02/13 09:49:26;;;;;;;6.35;2.60;;;;;;;15.19;77.81;99298.72;5028170;28;20387;-78
2024/02/13 09:51:56;;;;;;;2.90;1.90;;;;;;;15.34;76.00;99326.66;5028193;28;20103;-77
2024/02/13 09:54:23;;;;;;;5.45;3.47;;;;;;;14.70;68.64;99296.50;5024006;28;20029;-78
2024/02/13 09:56:51;;;;;;;3.50;2.47;;;;;;;15.07;64.33;99319.66;5016446;28;20025;-78
2024/02/13 09:59:19;;;;;;;3.25;2.03;;;;;;;14.81;66.62;99311.56;5012233;28;20104;-77
2024/02/13 10:01:45;;;;;;;3.38;1.90;;;;;;;14.89;65.06;99318.28;5019062;28;20049;-78
2024/02/13 10:04:10;;;;;;;2.65;1.92;;;;;;;14.86;63.42;99319.63;5026248;28;20698;-78
2024/02/13 10:06:36;;;;;;;3.33;2.17;;;;;;;15.01;63.13;99291.19;5027446;28;20033;-78
2024/02/13 10:09:01;;;;;;;3.05;1.73;;;;;;;14.97;60.93;99303.53;5027247;28;20030;-78
2024/02/13 10:11:31;;;;;;;4.10;2.55;;;;;;;15.15;61.83;99313.75;5027822;28;20538;-78
2024/02/13 10:13:57;;;;;;;3.55;1.92;;;;;;;15.44;59.89;99311.31;5027430;28;20029;-77
2024/02/13 10:16:23;;;;;;;2.63;1.95;;;;;;;15.72;61.07;99316.44;5021963;28;20046;-79
2024/02/13 10:18:54;;;;;;;6.95;3.20;;;;;;;15.50;61.46;99309.44;5012060;28;20041;-78
2024/02/13 10:21:27;;;;;;;7.30;3.15;;;;;;;16.02;58.28;99300.25;5013594;28;20797;-78
2024/02/13 10:24:03;;;;;;;5.97;2.35;;;;;;;16.12;57.36;99294.06;5027125;28;20589;-78
2024/02/13 10:26:28;;;;;;;3.25;1.70;;;;;;;15.76;57.38;99274.53;5044791;28;20032;-79
2024/02/13 10:28:57;;;;;;;2.67;1.75;;;;;;;16.07;58.49;99292.16;5016036;28;20026;-79
2024/02/13 10:31:26;;;;;;;2.70;2.00;;;;;;;16.19;54.99;99267.66;5018671;28;20021;-79
2024/02/13 10:33:54;;;;;;;7.28;3.00;;;;;;;16.43;55.67;99296.63;5027511;28;20045;-78
2024/02/13 10:36:22;;;;;;;3.50;2.20;;;;;;;16.78;53.75;99306.38;5019452;28;20038;-79
2024/02/13 10:38:49;;;;;;;2.83;1.80;;;;;;;16.56;52.52;99297.91;5019881;28;20158;-79
2024/02/13 10:41:23;;;;;;;2.10;1.50;;;;;;;16.59;51.32;99259.66;5017632;28;20036;-79
2024/02/13 10:43:51;;;;;;;4.55;2.13;;;;;;;16.96;51.11;99279.91;5009552;28;20033;-78
2024/02/13 10:46:22;;;;;;;6.57;3.17;;;;;;;17.21;51.05;99281.63;5024510;28;20017;-79
2024/02/13 10:48:56;;;;;;;2.20;1.50;;;;;;;16.94;50.32;99287.47;5020793;28;20049;-79
2024/02/13 10:51:23;;;;;;;5.13;1.98;;;;;;;16.56;50.49;99273.69;5013072;28;20026;-79
2024/02/13 10:53:48;;;;;;;4.95;2.47;;;;;;;16.30;51.08;99271.09;5018984;28;20042;-79
2024/02/13 10:56:14;;;;;;;2.42;1.60;;;;;;;16.71;48.76;99267.38;5017067;28;20091;-80
2024/02/13 10:58:43;;;;;;;2.63;1.45;;;;;;;16.85;46.39;99287.25;5018719;28;20092;-78
2024/02/13 11:01:11;;;;;;;7.97;2.63;;;;;;;16.94;48.74;99277.50;5015565;28;20026;-78
2024/02/13 11:03:38;;;;;;;1.63;1.20;;;;;;;16.54;48.04;99278.53;5017328;28;20109;-79
2024/02/13 11:06:05;;;;;;;1.75;1.30;;;;;;;16.54;49.47;99273.16;5020068;28;20518;-80
2024/02/13 11:08:31;;;;;;;1.90;1.52;;;;;;;16.26;51.15;99252.03;5015525;28;20038;-79
2024/02/13 11:11:00;;;;;;;3.08;1.73;;;;;;;15.96;51.47;99258.34;5014428;28;20034;-78
2024/02/13 11:13:26;;;;;;;3.35;2.00;;;;;;;16.36;54.17;99261.91;5025526;28;20453;-78
2024/02/13 11:15:56;;;;;;;2.35;1.63;;;;;;;15.82;52.66;99241.97;5027002;28;20548;-78
2024/02/13 11:18:22;;;;;;;2.70;2.05;;;;;;;16.19;52.25;99250.72;5026794;28;20086;-78
2024/02/13 11:20:50;;;;;;;2.40;1.55;;;;;;;15.79;51.92;99252.47;5026871;28;20026;-78
2024/02/13 11:23:16;;;;;;;1.73;1.60;;;;;;;15.41;53.56;99260.03;5026582;28;20574;-78